Terminal Aerodrome Forecast
Issued by NWS

Home | Current Version | Previous Version | Text Only | Print | Product List | Glossary On
Versions: 1 2 3 4 5 6 7 8 9 10 11 12 13 14 15 16 17 18 19 20 21 22 23 24 25 26 27 28 29 30
000
FTUS44 KBMX 050520
TAFANB
TAF
KANB 050520Z 0506/0606 23003KT P6SM BKN015
     FM051200 22003KT P6SM VCSH OVC015
     FM051800 24008KT P6SM BKN050
     FM060000 23005KT P6SM SCT050 OVC250=

USA.gov is the U.S. government's official web portal to all federal, state and local government web resources and services.